sensor_id;sensor_type;location;lat;lon;timestamp;temperature;humidity
10885;DHT22;5495;53.252;10.390;2022-08-18T00:00:33;21.00;99.90
10885;DHT22;5495;53.252;10.390;2022-08-18T00:03:05;21.00;99.90
10885;DHT22;5495;53.252;10.390;2022-08-18T00:05:34;21.00;99.90
10885;DHT22;5495;53.252;10.390;2022-08-18T00:08:02;21.00;99.90
10885;DHT22;5495;53.252;10.390;2022-08-18T00:10:30;21.00;99.90
10885;DHT22;5495;53.252;10.390;2022-08-18T00:12:58;21.00;99.90
10885;DHT22;5495;53.252;10.390;2022-08-18T00:15:26;21.00;99.90
10885;DHT22;5495;53.252;10.390;2022-08-18T00:17:56;21.00;99.90
10885;DHT22;5495;53.252;10.390;2022-08-18T00:20:24;20.90;99.90
10885;DHT22;5495;53.252;10.390;2022-08-18T00:22:52;20.90;99.90
10885;DHT22;5495;53.252;10.390;2022-08-18T00:25:23;20.90;99.90
10885;DHT22;5495;53.252;10.390;2022-08-18T00:27:51;20.90;99.90
10885;DHT22;5495;53.252;10.390;2022-08-18T00:30:20;20.90;99.90
10885;DHT22;5495;53.252;10.390;2022-08-18T00:32:50;20.90;99.90
10885;DHT22;5495;53.252;10.390;2022-08-18T00:35:22;20.90;99.90
10885;DHT22;5495;53.252;10.390;2022-08-18T00:37:51;20.90;99.90
10885;DHT22;5495;53.252;10.390;2022-08-18T00:40:26;20.90;99.90
10885;DHT22;5495;53.252;10.390;2022-08-18T00:42:57;20.80;99.90
10885;DHT22;5495;53.252;10.390;2022-08-18T00:45:30;20.80;99.90
10885;DHT22;5495;53.252;10.390;2022-08-18T00:47:58;20.70;99.90
10885;DHT22;5495;53.252;10.390;2022-08-18T00:50:30;20.70;99.90
10885;DHT22;5495;53.252;10.390;2022-08-18T00:53:02;20.70;99.90
10885;DHT22;5495;53.252;10.390;2022-08-18T00:55:32;20.70;99.90
10885;DHT22;5495;53.252;10.390;2022-08-18T00:58:05;20.70;99.90
10885;DHT22;5495;53.252;10.390;2022-08-18T01:00:34;20.70;99.90
10885;DHT22;5495;53.252;10.390;2022-08-18T01:03:06;20.70;99.90
10885;DHT22;5495;53.252;10.390;2022-08-18T01:05:42;20.60;99.90
10885;DHT22;5495;53.252;10.390;2022-08-18T01:08:13;20.70;99.90
10885;DHT22;5495;53.252;10.390;2022-08-18T01:10:42;20.70;99.90
10885;DHT22;5495;53.252;10.390;2022-08-18T01:13:10;20.70;99.90
10885;DHT22;5495;53.252;10.390;2022-08-18T01:15:38;20.60;99.90
10885;DHT22;5495;53.252;10.390;2022-08-18T01:18:09;20.60;99.90
10885;DHT22;5495;53.252;10.390;2022-08-18T01:21:09;20.50;99.90
10885;DHT22;5495;53.252;10.390;2022-08-18T01:23:57;20.50;99.90
10885;DHT22;5495;53.252;10.390;2022-08-18T01:26:27;20.40;99.90
10885;DHT22;5495;53.252;10.390;2022-08-18T01:29:03;20.40;99.90
10885;DHT22;5495;53.252;10.390;2022-08-18T01:31:33;20.30;99.90
10885;DHT22;5495;53.252;10.390;2022-08-18T01:34:03;20.30;99.90
10885;DHT22;5495;53.252;10.390;2022-08-18T01:36:33;20.30;99.90
10885;DHT22;5495;53.252;10.390;2022-08-18T01:39:06;20.20;99.90
10885;DHT22;5495;53.252;10.390;2022-08-18T01:41:34;20.20;99.90
10885;DHT22;5495;53.252;10.390;2022-08-18T01:44:04;20.20;99.90
10885;DHT22;5495;53.252;10.390;2022-08-18T01:46:34;20.10;99.90
10885;DHT22;5495;53.252;10.390;2022-08-18T01:49:02;20.10;99.90
10885;DHT22;5495;53.252;10.390;2022-08-18T01:51:31;20.10;99.90
10885;DHT22;5495;53.252;10.390;2022-08-18T01:54:00;20.10;99.90
10885;DHT22;5495;53.252;10.390;2022-08-18T01:56:29;20.10;99.90
10885;DHT22;5495;53.252;10.390;2022-08-18T01:58:57;20.00;99.90
10885;DHT22;5495;53.252;10.390;2022-08-18T02:01:25;20.00;99.90
10885;DHT22;5495;53.252;10.390;2022-08-18T02:03:55;20.00;99.90
10885;DHT22;5495;53.252;10.390;2022-08-18T02:06:27;20.00;99.90
10885;DHT22;5495;53.252;10.390;2022-08-18T02:08:55;20.00;99.90
10885;DHT22;5495;53.252;10.390;2022-08-18T02:11:23;19.90;99.90
10885;DHT22;5495;53.252;10.390;2022-08-18T02:13:52;19.90;99.90
10885;DHT22;5495;53.252;10.390;2022-08-18T02:16:19;19.90;99.90
10885;DHT22;5495;53.252;10.390;2022-08-18T02:18:47;19.90;99.90
10885;DHT22;5495;53.252;10.390;2022-08-18T02:21:17;19.80;99.90
10885;DHT22;5495;53.252;10.390;2022-08-18T02:23:46;19.80;99.90
10885;DHT22;5495;53.252;10.390;2022-08-18T02:26:15;19.80;99.90
10885;DHT22;5495;53.252;10.390;2022-08-18T02:28:43;19.80;99.90
10885;DHT22;5495;53.252;10.390;2022-08-18T02:31:15;19.80;99.90
10885;DHT22;5495;53.252;10.390;2022-08-18T02:33:44;19.70;99.90
10885;DHT22;5495;53.252;10.390;2022-08-18T02:36:12;19.80;99.90
10885;DHT22;5495;53.252;10.390;2022-08-18T02:38:40;19.70;99.90
10885;DHT22;5495;53.252;10.390;2022-08-18T02:41:10;19.70;99.90
10885;DHT22;5495;53.252;10.390;2022-08-18T02:43:39;19.80;99.90
10885;DHT22;5495;53.252;10.390;2022-08-18T02:46:07;19.70;99.90
10885;DHT22;5495;53.252;10.390;2022-08-18T02:48:39;19.70;99.90
10885;DHT22;5495;53.252;10.390;2022-08-18T02:51:09;19.70;99.90
10885;DHT22;5495;53.252;10.390;2022-08-18T02:53:37;19.70;99.90
10885;DHT22;5495;53.252;10.390;2022-08-18T02:56:09;19.70;99.90
10885;DHT22;5495;53.252;10.390;2022-08-18T02:58:57;19.70;99.90
10885;DHT22;5495;53.252;10.390;2022-08-18T03:01:28;19.60;99.90
10885;DHT22;5495;53.252;10.390;2022-08-18T03:03:58;19.60;99.90
10885;DHT22;5495;53.252;10.390;2022-08-18T03:06:27;19.60;99.90
10885;DHT22;5495;53.252;10.390;2022-08-18T03:09:04;19.60;99.90
10885;DHT22;5495;53.252;10.390;2022-08-18T03:11:32;19.60;99.90
10885;DHT22;5495;53.252;10.390;2022-08-18T03:14:00;19.50;99.90
10885;DHT22;5495;53.252;10.390;2022-08-18T03:16:27;19.50;99.90
10885;DHT22;5495;53.252;10.390;2022-08-18T03:19:00;19.50;99.90
10885;DHT22;5495;53.252;10.390;2022-08-18T03:21:29;19.50;99.90
10885;DHT22;5495;53.252;10.390;2022-08-18T03:24:05;19.50;99.90
10885;DHT22;5495;53.252;10.390;2022-08-18T03:26:33;19.40;99.90
10885;DHT22;5495;53.252;10.390;2022-08-18T03:29:01;19.40;99.90
10885;DHT22;5495;53.252;10.390;2022-08-18T03:31:34;19.30;99.90
10885;DHT22;5495;53.252;10.390;2022-08-18T03:34:06;19.30;99.90
10885;DHT22;5495;53.252;10.390;2022-08-18T03:36:35;19.30;99.90
10885;DHT22;5495;53.252;10.390;2022-08-18T03:39:04;19.30;99.90
10885;DHT22;5495;53.252;10.390;2022-08-18T03:41:33;19.30;99.90
10885;DHT22;5495;53.252;10.390;2022-08-18T03:44:02;19.20;99.90
10885;DHT22;5495;53.252;10.390;2022-08-18T03:46:33;19.20;99.90
10885;DHT22;5495;53.252;10.390;2022-08-18T03:49:01;19.30;99.90
10885;DHT22;5495;53.252;10.390;2022-08-18T03:51:33;19.20;99.90
10885;DHT22;5495;53.252;10.390;2022-08-18T03:54:03;19.20;99.90
10885;DHT22;5495;53.252;10.390;2022-08-18T03:56:32;19.20;99.90
10885;DHT22;5495;53.252;10.390;2022-08-18T03:59:03;19.20;99.90
10885;DHT22;5495;53.252;10.390;2022-08-18T04:01:35;19.20;99.90
10885;DHT22;5495;53.252;10.390;2022-08-18T04:04:06;19.20;99.90
10885;DHT22;5495;53.252;10.390;2022-08-18T04:06:37;19.10;99.90
10885;DHT22;5495;53.252;10.390;2022-08-18T04:09:10;19.00;99.90
10885;DHT22;5495;53.252;10.390;2022-08-18T04:11:38;19.00;99.90
10885;DHT22;5495;53.252;10.390;2022-08-18T04:14:10;19.00;99.90
10885;DHT22;5495;53.252;10.390;2022-08-18T04:16:39;19.00;99.90
10885;DHT22;5495;53.252;10.390;2022-08-18T04:19:09;19.00;99.90
10885;DHT22;5495;53.252;10.390;2022-08-18T04:21:41;18.90;99.90
10885;DHT22;5495;53.252;10.390;2022-08-18T04:24:10;18.90;99.90
10885;DHT22;5495;53.252;10.390;2022-08-18T04:26:43;18.90;99.90
10885;DHT22;5495;53.252;10.390;2022-08-18T04:29:12;18.90;99.90
10885;DHT22;5495;53.252;10.390;2022-08-18T04:31:40;19.00;99.90
10885;DHT22;5495;53.252;10.390;2022-08-18T04:34:07;19.00;99.90
10885;DHT22;5495;53.252;10.390;2022-08-18T04:36:36;19.00;99.90
10885;DHT22;5495;53.252;10.390;2022-08-18T04:39:07;18.90;99.90
10885;DHT22;5495;53.252;10.390;2022-08-18T04:41:37;18.90;99.90
10885;DHT22;5495;53.252;10.390;2022-08-18T04:44:07;18.90;99.90
10885;DHT22;5495;53.252;10.390;2022-08-18T04:46:36;19.00;99.90
10885;DHT22;5495;53.252;10.390;2022-08-18T04:49:05;19.00;99.90
10885;DHT22;5495;53.252;10.390;2022-08-18T04:51:34;19.10;99.90
10885;DHT22;5495;53.252;10.390;2022-08-18T04:54:02;19.10;99.90
10885;DHT22;5495;53.252;10.390;2022-08-18T04:56:31;19.10;99.90
10885;DHT22;5495;53.252;10.390;2022-08-18T04:59:03;19.20;99.90
10885;DHT22;5495;53.252;10.390;2022-08-18T05:01:34;19.20;99.90
10885;DHT22;5495;53.252;10.390;2022-08-18T05:04:04;19.20;99.90
10885;DHT22;5495;53.252;10.390;2022-08-18T05:06:32;19.30;99.90
10885;DHT22;5495;53.252;10.390;2022-08-18T05:09:01;19.30;99.90
10885;DHT22;5495;53.252;10.390;2022-08-18T05:11:33;19.40;99.90
10885;DHT22;5495;53.252;10.390;2022-08-18T05:14:02;19.40;99.90
10885;DHT22;5495;53.252;10.390;2022-08-18T05:16:31;19.50;99.90
10885;DHT22;5495;53.252;10.390;2022-08-18T05:19:02;19.50;99.90
10885;DHT22;5495;53.252;10.390;2022-08-18T05:21:30;19.50;99.90
10885;DHT22;5495;53.252;10.390;2022-08-18T05:23:59;19.60;99.90
10885;DHT22;5495;53.252;10.390;2022-08-18T05:26:27;19.60;99.90
10885;DHT22;5495;53.252;10.390;2022-08-18T05:28:57;19.60;99.90
10885;DHT22;5495;53.252;10.390;2022-08-18T05:31:27;19.70;99.90
10885;DHT22;5495;53.252;10.390;2022-08-18T05:33:55;19.70;99.90
10885;DHT22;5495;53.252;10.390;2022-08-18T05:36:45;19.80;99.90
10885;DHT22;5495;53.252;10.390;2022-08-18T05:39:23;19.70;99.90
10885;DHT22;5495;53.252;10.390;2022-08-18T05:41:54;19.80;99.90
10885;DHT22;5495;53.252;10.390;2022-08-18T05:44:28;19.90;99.90
10885;DHT22;5495;53.252;10.390;2022-08-18T05:47:07;19.90;99.90
10885;DHT22;5495;53.252;10.390;2022-08-18T05:49:39;19.90;99.90
10885;DHT22;5495;53.252;10.390;2022-08-18T05:52:13;20.00;99.90
10885;DHT22;5495;53.252;10.390;2022-08-18T05:54:45;20.10;99.90
10885;DHT22;5495;53.252;10.390;2022-08-18T05:57:37;20.10;99.90
10885;DHT22;5495;53.252;10.390;2022-08-18T06:00:09;20.10;99.90
10885;DHT22;5495;53.252;10.390;2022-08-18T06:02:41;20.10;99.90
10885;DHT22;5495;53.252;10.390;2022-08-18T06:05:15;20.20;99.90
10885;DHT22;5495;53.252;10.390;2022-08-18T06:07:50;20.20;99.90
10885;DHT22;5495;53.252;10.390;2022-08-18T06:10:19;20.20;99.90
10885;DHT22;5495;53.252;10.390;2022-08-18T06:12:49;20.20;99.90
10885;DHT22;5495;53.252;10.390;2022-08-18T06:15:23;20.20;99.90
10885;DHT22;5495;53.252;10.390;2022-08-18T06:21:24;20.30;99.90
10885;DHT22;5495;53.252;10.390;2022-08-18T06:24:04;20.40;99.90
10885;DHT22;5495;53.252;10.390;2022-08-18T06:26:37;20.40;99.90
10885;DHT22;5495;53.252;10.390;2022-08-18T06:29:15;20.50;99.90
10885;DHT22;5495;53.252;10.390;2022-08-18T06:31:55;20.60;99.90
10885;DHT22;5495;53.252;10.390;2022-08-18T06:34:34;20.70;99.90
10885;DHT22;5495;53.252;10.390;2022-08-18T06:37:12;20.80;99.90
10885;DHT22;5495;53.252;10.390;2022-08-18T06:39:50;20.80;99.90
10885;DHT22;5495;53.252;10.390;2022-08-18T06:42:19;20.90;99.90
10885;DHT22;5495;53.252;10.390;2022-08-18T06:44:54;21.00;99.90
10885;DHT22;5495;53.252;10.390;2022-08-18T06:47:33;21.00;99.90
10885;DHT22;5495;53.252;10.390;2022-08-18T06:50:09;21.00;99.90
10885;DHT22;5495;53.252;10.390;2022-08-18T06:52:39;20.90;99.90
10885;DHT22;5495;53.252;10.390;2022-08-18T06:55:31;20.90;99.90
10885;DHT22;5495;53.252;10.390;2022-08-18T06:58:00;20.80;99.90
10885;DHT22;5495;53.252;10.390;2022-08-18T07:00:31;20.70;99.90
10885;DHT22;5495;53.252;10.390;2022-08-18T07:03:04;20.50;99.90
10885;DHT22;5495;53.252;10.390;2022-08-18T07:05:34;20.50;99.90
10885;DHT22;5495;53.252;10.390;2022-08-18T07:08:14;20.40;99.90
10885;DHT22;5495;53.252;10.390;2022-08-18T07:10:45;20.40;99.90
10885;DHT22;5495;53.252;10.390;2022-08-18T07:13:24;20.40;99.90
10885;DHT22;5495;53.252;10.390;2022-08-18T07:15:54;20.30;99.90
10885;DHT22;5495;53.252;10.390;2022-08-18T07:18:26;20.30;99.90
10885;DHT22;5495;53.252;10.390;2022-08-18T07:20:56;20.40;99.90
10885;DHT22;5495;53.252;10.390;2022-08-18T07:23:30;20.40;99.90
10885;DHT22;5495;53.252;10.390;2022-08-18T07:26:06;20.40;99.90
10885;DHT22;5495;53.252;10.390;2022-08-18T07:28:38;20.30;99.90
10885;DHT22;5495;53.252;10.390;2022-08-18T07:31:11;20.40;99.90
10885;DHT22;5495;53.252;10.390;2022-08-18T07:33:42;20.40;99.90
10885;DHT22;5495;53.252;10.390;2022-08-18T07:36:13;20.30;99.90
10885;DHT22;5495;53.252;10.390;2022-08-18T07:38:47;20.40;99.90
10885;DHT22;5495;53.252;10.390;2022-08-18T07:41:18;20.30;99.90
10885;DHT22;5495;53.252;10.390;2022-08-18T07:43:57;20.40;99.90
10885;DHT22;5495;53.252;10.390;2022-08-18T07:46:30;20.40;99.90
10885;DHT22;5495;53.252;10.390;2022-08-18T07:49:00;20.40;99.90
10885;DHT22;5495;53.252;10.390;2022-08-18T07:51:33;20.40;99.90
10885;DHT22;5495;53.252;10.390;2022-08-18T07:54:11;20.40;99.90
10885;DHT22;5495;53.252;10.390;2022-08-18T07:56:49;20.50;99.90
10885;DHT22;5495;53.252;10.390;2022-08-18T07:59:22;20.50;99.90
10885;DHT22;5495;53.252;10.390;2022-08-18T08:01:57;20.50;99.90
10885;DHT22;5495;53.252;10.390;2022-08-18T08:04:35;20.50;99.90
10885;DHT22;5495;53.252;10.390;2022-08-18T08:07:08;20.50;99.90
10885;DHT22;5495;53.252;10.390;2022-08-18T08:09:43;20.50;99.90
10885;DHT22;5495;53.252;10.390;2022-08-18T08:12:17;20.60;99.90
10885;DHT22;5495;53.252;10.390;2022-08-18T08:14:49;20.60;99.90
10885;DHT22;5495;53.252;10.390;2022-08-18T08:17:24;20.60;99.90
10885;DHT22;5495;53.252;10.390;2022-08-18T08:20:18;20.60;99.90
10885;DHT22;5495;53.252;10.390;2022-08-18T08:23:00;20.60;99.90
10885;DHT22;5495;53.252;10.390;2022-08-18T08:25:35;20.60;99.90
10885;DHT22;5495;53.252;10.390;2022-08-18T08:28:16;20.60;99.90
10885;DHT22;5495;53.252;10.390;2022-08-18T08:30:53;20.60;99.90
10885;DHT22;5495;53.252;10.390;2022-08-18T08:33:32;20.60;99.90
10885;DHT22;5495;53.252;10.390;2022-08-18T08:36:06;20.60;99.90
10885;DHT22;5495;53.252;10.390;2022-08-18T08:38:42;20.60;99.90
10885;DHT22;5495;53.252;10.390;2022-08-18T08:41:14;20.60;99.90
10885;DHT22;5495;53.252;10.390;2022-08-18T08:43:48;20.70;99.90
10885;DHT22;5495;53.252;10.390;2022-08-18T08:46:21;20.70;99.90
10885;DHT22;5495;53.252;10.390;2022-08-18T08:48:55;20.60;99.90
10885;DHT22;5495;53.252;10.390;2022-08-18T08:51:35;20.60;99.90
10885;DHT22;5495;53.252;10.390;2022-08-18T08:54:09;20.70;99.90
10885;DHT22;5495;53.252;10.390;2022-08-18T08:56:44;20.70;99.90
10885;DHT22;5495;53.252;10.390;2022-08-18T08:59:14;20.70;99.90
10885;DHT22;5495;53.252;10.390;2022-08-18T09:01:47;20.80;99.90
10885;DHT22;5495;53.252;10.390;2022-08-18T09:04:29;20.90;99.90
10885;DHT22;5495;53.252;10.390;2022-08-18T09:07:26;20.90;99.90
10885;DHT22;5495;53.252;10.390;2022-08-18T09:10:18;21.00;99.90
10885;DHT22;5495;53.252;10.390;2022-08-18T09:13:09;21.00;99.90
10885;DHT22;5495;53.252;10.390;2022-08-18T09:16:08;21.00;99.90
10885;DHT22;5495;53.252;10.390;2022-08-18T09:18:49;21.10;99.90
10885;DHT22;5495;53.252;10.390;2022-08-18T09:21:37;21.10;99.90
10885;DHT22;5495;53.252;10.390;2022-08-18T09:24:20;21.10;99.90
10885;DHT22;5495;53.252;10.390;2022-08-18T09:26:52;21.10;99.90
10885;DHT22;5495;53.252;10.390;2022-08-18T09:29:51;21.20;99.90
10885;DHT22;5495;53.252;10.390;2022-08-18T09:32:41;21.20;99.90
10885;DHT22;5495;53.252;10.390;2022-08-18T09:35:29;21.30;99.90
10885;DHT22;5495;53.252;10.390;2022-08-18T09:38:08;21.30;99.90
10885;DHT22;5495;53.252;10.390;2022-08-18T09:40:57;21.40;99.90
10885;DHT22;5495;53.252;10.390;2022-08-18T09:43:55;21.40;99.90
10885;DHT22;5495;53.252;10.390;2022-08-18T09:47:04;21.40;99.90
10885;DHT22;5495;53.252;10.390;2022-08-18T09:49:47;21.50;99.90
10885;DHT22;5495;53.252;10.390;2022-08-18T09:55:52;21.60;99.90
10885;DHT22;5495;53.252;10.390;2022-08-18T09:58:49;21.60;99.90
10885;DHT22;5495;53.252;10.390;2022-08-18T10:01:38;21.60;99.90
10885;DHT22;5495;53.252;10.390;2022-08-18T10:04:25;21.70;99.90
10885;DHT22;5495;53.252;10.390;2022-08-18T10:06:54;21.80;99.90
10885;DHT22;5495;53.252;10.390;2022-08-18T10:09:33;21.90;99.90
10885;DHT22;5495;53.252;10.390;2022-08-18T10:12:38;22.00;99.90
10885;DHT22;5495;53.252;10.390;2022-08-18T10:15:35;22.10;99.90
10885;DHT22;5495;53.252;10.390;2022-08-18T10:21:13;22.30;99.90
10885;DHT22;5495;53.252;10.390;2022-08-18T10:23:52;22.50;99.90
10885;DHT22;5495;53.252;10.390;2022-08-18T10:29:51;22.70;99.90
10885;DHT22;5495;53.252;10.390;2022-08-18T10:32:45;22.90;99.90
10885;DHT22;5495;53.252;10.390;2022-08-18T10:41:27;22.90;99.90
10885;DHT22;5495;53.252;10.390;2022-08-18T10:44:04;22.90;99.90
10885;DHT22;5495;53.252;10.390;2022-08-18T10:46:33;23.20;99.90
10885;DHT22;5495;53.252;10.390;2022-08-18T10:49:15;22.80;99.90
10885;DHT22;5495;53.252;10.390;2022-08-18T10:52:16;22.80;99.90
10885;DHT22;5495;53.252;10.390;2022-08-18T10:55:08;23.00;99.90
10885;DHT22;5495;53.252;10.390;2022-08-18T10:58:09;23.00;99.90
10885;DHT22;5495;53.252;10.390;2022-08-18T11:00:51;23.20;99.90
10885;DHT22;5495;53.252;10.390;2022-08-18T11:03:34;23.40;99.90
10885;DHT22;5495;53.252;10.390;2022-08-18T11:06:15;23.60;99.90
10885;DHT22;5495;53.252;10.390;2022-08-18T11:08:46;23.60;99.90
10885;DHT22;5495;53.252;10.390;2022-08-18T11:11:20;23.70;99.90
10885;DHT22;5495;53.252;10.390;2022-08-18T11:14:03;23.70;99.90
10885;DHT22;5495;53.252;10.390;2022-08-18T11:16:45;23.70;99.90
10885;DHT22;5495;53.252;10.390;2022-08-18T11:19:17;23.80;99.90
10885;DHT22;5495;53.252;10.390;2022-08-18T11:21:50;23.80;99.90
10885;DHT22;5495;53.252;10.390;2022-08-18T11:24:19;24.10;99.90
10885;DHT22;5495;53.252;10.390;2022-08-18T11:26:50;24.30;99.90
10885;DHT22;5495;53.252;10.390;2022-08-18T11:29:24;24.40;99.90
10885;DHT22;5495;53.252;10.390;2022-08-18T11:31:55;24.40;99.90
10885;DHT22;5495;53.252;10.390;2022-08-18T11:34:29;24.40;99.90
10885;DHT22;5495;53.252;10.390;2022-08-18T11:37:01;24.50;99.90
10885;DHT22;5495;53.252;10.390;2022-08-18T11:39:29;24.70;99.90
10885;DHT22;5495;53.252;10.390;2022-08-18T11:41:58;24.80;99.90
10885;DHT22;5495;53.252;10.390;2022-08-18T11:44:29;24.90;99.90
10885;DHT22;5495;53.252;10.390;2022-08-18T11:47:11;24.90;99.90
10885;DHT22;5495;53.252;10.390;2022-08-18T11:49:51;24.90;99.90
10885;DHT22;5495;53.252;10.390;2022-08-18T11:52:25;24.70;99.90
10885;DHT22;5495;53.252;10.390;2022-08-18T11:54:59;24.70;99.90
10885;DHT22;5495;53.252;10.390;2022-08-18T11:57:38;24.80;99.90
10885;DHT22;5495;53.252;10.390;2022-08-18T12:03:26;25.00;99.90
10885;DHT22;5495;53.252;10.390;2022-08-18T12:05:56;24.90;99.90
10885;DHT22;5495;53.252;10.390;2022-08-18T12:08:34;25.00;99.90
10885;DHT22;5495;53.252;10.390;2022-08-18T12:11:12;25.10;99.90
10885;DHT22;5495;53.252;10.390;2022-08-18T12:13:43;25.20;99.90
10885;DHT22;5495;53.252;10.390;2022-08-18T12:16:14;25.40;99.90
10885;DHT22;5495;53.252;10.390;2022-08-18T12:18:41;25.50;99.90
10885;DHT22;5495;53.252;10.390;2022-08-18T12:21:09;25.60;99.90
10885;DHT22;5495;53.252;10.390;2022-08-18T12:23:40;25.60;99.90
10885;DHT22;5495;53.252;10.390;2022-08-18T12:26:08;25.70;99.90
10885;DHT22;5495;53.252;10.390;2022-08-18T12:28:35;25.70;99.90
10885;DHT22;5495;53.252;10.390;2022-08-18T12:31:07;25.80;99.90
10885;DHT22;5495;53.252;10.390;2022-08-18T12:33:37;25.80;99.90
10885;DHT22;5495;53.252;10.390;2022-08-18T12:36:05;25.80;99.90
10885;DHT22;5495;53.252;10.390;2022-08-18T12:38:32;25.90;99.90
10885;DHT22;5495;53.252;10.390;2022-08-18T12:41:02;25.90;99.90
10885;DHT22;5495;53.252;10.390;2022-08-18T12:43:31;26.00;99.90
10885;DHT22;5495;53.252;10.390;2022-08-18T12:45:58;26.00;99.90
10885;DHT22;5495;53.252;10.390;2022-08-18T12:48:28;25.90;99.90
10885;DHT22;5495;53.252;10.390;2022-08-18T12:50:57;25.80;99.90
10885;DHT22;5495;53.252;10.390;2022-08-18T12:53:24;25.80;99.90
10885;DHT22;5495;53.252;10.390;2022-08-18T12:55:52;25.90;99.90
10885;DHT22;5495;53.252;10.390;2022-08-18T12:58:21;25.90;99.90
10885;DHT22;5495;53.252;10.390;2022-08-18T13:00:48;25.90;99.90
10885;DHT22;5495;53.252;10.390;2022-08-18T13:03:15;25.90;99.90
10885;DHT22;5495;53.252;10.390;2022-08-18T13:05:44;26.00;99.90
10885;DHT22;5495;53.252;10.390;2022-08-18T13:08:17;26.00;99.90
10885;DHT22;5495;53.252;10.390;2022-08-18T13:10:47;25.90;99.90
10885;DHT22;5495;53.252;10.390;2022-08-18T13:13:16;25.80;99.90
10885;DHT22;5495;53.252;10.390;2022-08-18T13:15:49;25.80;99.90
10885;DHT22;5495;53.252;10.390;2022-08-18T13:18:18;25.80;99.90
10885;DHT22;5495;53.252;10.390;2022-08-18T13:20:46;25.80;99.90
10885;DHT22;5495;53.252;10.390;2022-08-18T13:23:13;25.80;99.90
10885;DHT22;5495;53.252;10.390;2022-08-18T13:25:40;25.80;99.90
10885;DHT22;5495;53.252;10.390;2022-08-18T13:28:09;25.90;99.90
10885;DHT22;5495;53.252;10.390;2022-08-18T13:30:36;26.00;99.90
10885;DHT22;5495;53.252;10.390;2022-08-18T13:33:05;26.00;99.90
10885;DHT22;5495;53.252;10.390;2022-08-18T13:35:32;28.40;99.90
10885;DHT22;5495;53.252;10.390;2022-08-18T13:38:00;26.00;99.90
10885;DHT22;5495;53.252;10.390;2022-08-18T13:40:27;26.10;99.90
10885;DHT22;5495;53.252;10.390;2022-08-18T13:42:55;26.00;99.90
10885;DHT22;5495;53.252;10.390;2022-08-18T13:45:23;26.10;99.90
10885;DHT22;5495;53.252;10.390;2022-08-18T13:47:50;26.10;99.90
10885;DHT22;5495;53.252;10.390;2022-08-18T13:50:20;25.80;99.90
10885;DHT22;5495;53.252;10.390;2022-08-18T13:52:48;26.00;99.90
10885;DHT22;5495;53.252;10.390;2022-08-18T13:55:18;26.00;99.90
10885;DHT22;5495;53.252;10.390;2022-08-18T13:57:46;25.90;99.90
10885;DHT22;5495;53.252;10.390;2022-08-18T14:00:16;25.90;99.90
10885;DHT22;5495;53.252;10.390;2022-08-18T14:02:45;25.90;99.90
10885;DHT22;5495;53.252;10.390;2022-08-18T14:05:14;26.00;99.90
10885;DHT22;5495;53.252;10.390;2022-08-18T14:07:43;25.90;99.90
10885;DHT22;5495;53.252;10.390;2022-08-18T14:10:12;26.00;99.90
10885;DHT22;5495;53.252;10.390;2022-08-18T14:12:41;26.00;99.90
10885;DHT22;5495;53.252;10.390;2022-08-18T14:15:10;26.10;99.90
10885;DHT22;5495;53.252;10.390;2022-08-18T14:17:38;26.00;99.90
10885;DHT22;5495;53.252;10.390;2022-08-18T14:20:08;26.00;99.90
10885;DHT22;5495;53.252;10.390;2022-08-18T14:22:56;26.00;99.90
10885;DHT22;5495;53.252;10.390;2022-08-18T14:25:53;25.90;99.90
10885;DHT22;5495;53.252;10.390;2022-08-18T14:28:37;25.90;99.90
10885;DHT22;5495;53.252;10.390;2022-08-18T14:31:05;25.90;99.90
10885;DHT22;5495;53.252;10.390;2022-08-18T14:33:33;26.00;99.90
10885;DHT22;5495;53.252;10.390;2022-08-18T14:36:02;26.00;99.90
10885;DHT22;5495;53.252;10.390;2022-08-18T14:38:32;26.00;99.90
10885;DHT22;5495;53.252;10.390;2022-08-18T14:41:03;26.00;99.90
10885;DHT22;5495;53.252;10.390;2022-08-18T14:43:30;26.00;99.90
10885;DHT22;5495;53.252;10.390;2022-08-18T14:46:01;25.90;99.90
10885;DHT22;5495;53.252;10.390;2022-08-18T14:48:30;25.80;99.90
10885;DHT22;5495;53.252;10.390;2022-08-18T14:51:00;25.70;99.90
10885;DHT22;5495;53.252;10.390;2022-08-18T14:53:30;25.50;99.90
10885;DHT22;5495;53.252;10.390;2022-08-18T14:56:04;25.40;99.90
10885;DHT22;5495;53.252;10.390;2022-08-18T14:58:33;25.30;99.90
10885;DHT22;5495;53.252;10.390;2022-08-18T15:01:04;25.30;99.90
10885;DHT22;5495;53.252;10.390;2022-08-18T15:03:33;25.40;99.90
10885;DHT22;5495;53.252;10.390;2022-08-18T15:06:03;25.50;99.90
10885;DHT22;5495;53.252;10.390;2022-08-18T15:08:32;25.60;99.90
10885;DHT22;5495;53.252;10.390;2022-08-18T15:11:00;25.60;99.90
10885;DHT22;5495;53.252;10.390;2022-08-18T15:13:30;25.60;99.90
10885;DHT22;5495;53.252;10.390;2022-08-18T15:15:59;25.60;99.90
10885;DHT22;5495;53.252;10.390;2022-08-18T15:18:28;25.70;99.90
10885;DHT22;5495;53.252;10.390;2022-08-18T15:20:56;25.60;99.90
10885;DHT22;5495;53.252;10.390;2022-08-18T15:23:40;25.60;99.90
10885;DHT22;5495;53.252;10.390;2022-08-18T15:26:25;25.60;99.90
10885;DHT22;5495;53.252;10.390;2022-08-18T15:28:54;25.60;99.90
10885;DHT22;5495;53.252;10.390;2022-08-18T15:31:21;25.50;99.90
10885;DHT22;5495;53.252;10.390;2022-08-18T15:33:49;25.40;99.90
10885;DHT22;5495;53.252;10.390;2022-08-18T15:36:16;25.30;99.90
10885;DHT22;5495;53.252;10.390;2022-08-18T15:38:47;25.30;99.90
10885;DHT22;5495;53.252;10.390;2022-08-18T15:41:28;25.30;99.90
10885;DHT22;5495;53.252;10.390;2022-08-18T15:43:57;25.20;99.90
10885;DHT22;5495;53.252;10.390;2022-08-18T15:46:25;25.20;99.90
10885;DHT22;5495;53.252;10.390;2022-08-18T15:48:54;25.10;99.90
10885;DHT22;5495;53.252;10.390;2022-08-18T15:51:21;25.10;99.90
10885;DHT22;5495;53.252;10.390;2022-08-18T15:53:49;25.10;99.90
10885;DHT22;5495;53.252;10.390;2022-08-18T15:56:18;25.10;99.90
10885;DHT22;5495;53.252;10.390;2022-08-18T15:58:46;25.00;99.90
10885;DHT22;5495;53.252;10.390;2022-08-18T16:01:15;25.00;99.90
10885;DHT22;5495;53.252;10.390;2022-08-18T16:03:45;25.00;99.90
10885;DHT22;5495;53.252;10.390;2022-08-18T16:06:14;24.90;99.90
10885;DHT22;5495;53.252;10.390;2022-08-18T16:08:42;24.90;99.90
10885;DHT22;5495;53.252;10.390;2022-08-18T16:11:11;24.80;99.90
10885;DHT22;5495;53.252;10.390;2022-08-18T16:13:39;24.80;99.90
10885;DHT22;5495;53.252;10.390;2022-08-18T16:16:13;24.70;99.90
10885;DHT22;5495;53.252;10.390;2022-08-18T16:18:42;24.70;99.90
10885;DHT22;5495;53.252;10.390;2022-08-18T16:21:12;24.70;99.90
10885;DHT22;5495;53.252;10.390;2022-08-18T16:23:41;24.70;99.90
10885;DHT22;5495;53.252;10.390;2022-08-18T16:26:09;24.70;99.90
10885;DHT22;5495;53.252;10.390;2022-08-18T16:28:39;24.70;99.90